Time;durP1;ratioP1;P1;durP2;ratioP2;P2;SDS_P1;SDS_P2;PMS_P1;PMS_P2;Temp;Humidity;BMP_temperature;BMP_pressure;BME280_temperature;BME280_humidity;BME280_pressure;Samples;Min_cycle;Max_cycle;Signal;HPM_P1;HPM_P2
2021/03/31 00:00:36;;;;;;;10.80;4.20;;;10.60;99.90;;;;;;10414381;28;20021;-48
2021/03/31 00:05:57;;;;;;;12.32;3.92;;;10.50;99.90;;;;;;10405321;28;20033;-48
2021/03/31 00:11:19;;;;;;;13.88;5.28;;;10.40;99.90;;;;;;10392607;28;20407;-48
2021/03/31 00:16:40;;;;;;;10.85;5.40;;;10.30;99.90;;;;;;10378192;28;20348;-48
2021/03/31 00:22:01;;;;;;;11.57;3.70;;;10.20;99.90;;;;;;10409490;28;20063;-49
2021/03/31 00:27:22;;;;;;;10.02;3.72;;;10.10;99.90;;;;;;10414255;28;20857;-49
2021/03/31 00:32:43;;;;;;;14.45;4.47;;;10.00;99.90;;;;;;10400041;28;20046;-48
2021/03/31 00:38:06;;;;;;;7.35;3.50;;;9.90;99.90;;;;;;10391537;28;20033;-48
2021/03/31 00:43:27;;;;;;;10.00;3.42;;;9.90;99.90;;;;;;10414103;28;20157;-48
2021/03/31 00:48:48;;;;;;;11.18;3.85;;;9.80;99.90;;;;;;10395591;28;20582;-48
2021/03/31 00:54:09;;;;;;;8.23;4.25;;;9.70;99.90;;;;;;10394562;28;20049;-49
2021/03/31 00:59:30;;;;;;;13.00;4.15;;;9.70;99.90;;;;;;10372955;28;20040;-49
2021/03/31 01:04:51;;;;;;;11.07;4.68;;;9.70;99.90;;;;;;10406986;28;20039;-48
2021/03/31 01:10:14;;;;;;;9.68;3.90;;;9.60;99.90;;;;;;10411950;28;20045;-48
2021/03/31 01:16:11;;;;;;;10.35;3.45;;;9.50;99.90;;;;;;10409670;28;20033;-48
2021/03/31 01:21:44;;;;;;;9.07;4.10;;;9.50;99.90;;;;;;10387927;28;20542;-48
2021/03/31 01:27:18;;;;;;;8.55;3.17;;;9.40;99.90;;;;;;10400402;28;20036;-48
2021/03/31 01:33:16;;;;;;;6.30;3.45;;;9.40;99.90;;;;;;10409602;28;20033;-48
2021/03/31 01:38:41;;;;;;;8.35;3.55;;;9.30;99.90;;;;;;10412516;28;20068;-48
2021/03/31 01:44:07;;;;;;;8.20;4.30;;;9.20;99.90;;;;;;10404872;28;20785;-48
2021/03/31 01:49:28;;;;;;;6.15;2.97;;;9.20;99.90;;;;;;10404348;28;20042;-48
2021/03/31 01:54:51;;;;;;;10.30;3.70;;;9.20;99.90;;;;;;10392720;28;20378;-48
2021/03/31 02:00:15;;;;;;;8.75;4.13;;;9.20;99.90;;;;;;10403988;28;20095;-48
2021/03/31 02:05:37;;;;;;;12.20;4.63;;;9.10;99.90;;;;;;10385241;28;20379;-48
2021/03/31 02:10:59;;;;;;;9.15;3.42;;;9.00;99.90;;;;;;10411785;28;20033;-48
2021/03/31 02:16:21;;;;;;;11.02;4.18;;;9.00;99.90;;;;;;10385540;28;20050;-48
2021/03/31 02:21:43;;;;;;;8.38;2.58;;;8.90;99.90;;;;;;10380974;28;20052;-48
2021/03/31 02:27:05;;;;;;;8.75;3.80;;;8.90;99.90;;;;;;10402554;28;20048;-48
2021/03/31 02:32:27;;;;;;;9.60;2.97;;;8.80;99.90;;;;;;10402737;28;20095;-48
2021/03/31 02:37:55;;;;;;;8.68;3.63;;;8.80;99.90;;;;;;10386371;28;20136;-48
2021/03/31 02:43:17;;;;;;;9.35;5.10;;;8.70;99.90;;;;;;10403074;28;20080;-48
2021/03/31 02:48:40;;;;;;;6.70;3.08;;;8.60;99.90;;;;;;10392268;28;20045;-49
2021/03/31 02:54:01;;;;;;;16.02;3.42;;;8.50;99.90;;;;;;10391388;28;20040;-48
2021/03/31 02:59:23;;;;;;;9.68;3.47;;;8.50;99.90;;;;;;10405404;28;20032;-48
2021/03/31 03:04:47;;;;;;;7.78;3.78;;;8.40;99.90;;;;;;10410235;28;20124;-48
2021/03/31 03:10:09;;;;;;;13.02;3.80;;;8.40;99.90;;;;;;10416124;28;20041;-48
2021/03/31 03:15:31;;;;;;;6.60;2.45;;;8.30;99.90;;;;;;10395172;28;20032;-48
2021/03/31 03:20:53;;;;;;;10.02;3.58;;;8.20;99.90;;;;;;10394949;28;20045;-48
2021/03/31 03:26:16;;;;;;;11.10;4.07;;;8.10;99.90;;;;;;10411856;28;20030;-48
2021/03/31 03:31:38;;;;;;;10.82;3.50;;;8.10;99.90;;;;;;10395833;28;20098;-48
2021/03/31 03:36:59;;;;;;;9.85;3.58;;;8.00;99.90;;;;;;10407243;28;20057;-48
2021/03/31 03:42:20;;;;;;;8.80;4.50;;;7.90;99.90;;;;;;10396890;28;20103;-48
2021/03/31 03:47:43;;;;;;;11.20;3.22;;;8.00;99.90;;;;;;10411163;28;20053;-48
2021/03/31 03:53:04;;;;;;;9.55;3.15;;;7.90;99.90;;;;;;10406716;28;20049;-48
2021/03/31 03:58:26;;;;;;;5.25;2.92;;;7.90;99.90;;;;;;10416051;28;20045;-48
2021/03/31 04:03:47;;;;;;;17.65;3.63;;;7.90;99.90;;;;;;10409657;28;20052;-48
2021/03/31 04:09:08;;;;;;;9.43;3.08;;;7.70;99.90;;;;;;10412415;28;20507;-49
2021/03/31 04:14:30;;;;;;;6.20;2.55;;;7.70;99.90;;;;;;10407669;28;20483;-49
2021/03/31 04:19:53;;;;;;;8.48;3.33;;;7.60;99.90;;;;;;10406589;28;20431;-48
2021/03/31 04:25:16;;;;;;;10.02;3.53;;;7.60;99.90;;;;;;10409580;28;20053;-48
2021/03/31 04:30:39;;;;;;;8.52;3.88;;;7.50;99.90;;;;;;10411147;28;20042;-48
2021/03/31 04:36:00;;;;;;;7.32;2.78;;;7.50;99.90;;;;;;10413331;28;20025;-48
2021/03/31 04:41:21;;;;;;;11.68;3.83;;;7.40;99.90;;;;;;10417565;28;20083;-48
2021/03/31 04:46:42;;;;;;;9.63;3.42;;;7.40;99.90;;;;;;10395119;28;20556;-48
2021/03/31 04:52:03;;;;;;;8.90;3.50;;;7.30;99.90;;;;;;10410941;28;20076;-48
2021/03/31 04:57:24;;;;;;;9.15;3.60;;;7.30;99.90;;;;;;10413570;28;20123;-48
2021/03/31 05:02:45;;;;;;;10.13;3.90;;;7.30;99.90;;;;;;10399312;28;20145;-48
2021/03/31 05:08:07;;;;;;;9.55;3.80;;;7.20;99.90;;;;;;10390411;28;20045;-48
2021/03/31 05:13:28;;;;;;;7.13;2.95;;;7.20;99.90;;;;;;10407961;28;20049;-49
2021/03/31 05:18:49;;;;;;;15.55;4.43;;;7.10;99.90;;;;;;10406227;28;20033;-48
2021/03/31 05:24:10;;;;;;;9.80;3.45;;;7.10;99.90;;;;;;10384701;28;20555;-48
2021/03/31 05:29:31;;;;;;;14.93;4.13;;;7.10;99.90;;;;;;10411840;28;20046;-48
2021/03/31 05:34:53;;;;;;;11.85;4.15;;;7.10;99.90;;;;;;10387144;28;20046;-48
2021/03/31 05:40:15;;;;;;;9.02;4.45;;;7.20;99.90;;;;;;10385311;28;20030;-48
2021/03/31 05:45:36;;;;;;;10.60;3.53;;;7.10;99.90;;;;;;10382427;28;20044;-48
2021/03/31 05:50:59;;;;;;;12.30;3.95;;;7.10;99.90;;;;;;10391985;28;20045;-48
2021/03/31 05:56:21;;;;;;;9.07;4.30;;;7.20;99.90;;;;;;10424991;28;20427;-48
2021/03/31 06:01:42;;;;;;;13.57;4.57;;;7.20;99.90;;;;;;10419939;28;21360;-48
2021/03/31 06:07:04;;;;;;;18.77;4.78;;;7.30;99.90;;;;;;10403952;28;20306;-48
2021/03/31 06:12:29;;;;;;;11.68;4.13;;;7.30;99.90;;;;;;10424605;28;20058;-48
2021/03/31 06:17:58;;;;;;;9.05;4.95;;;7.40;99.90;;;;;;10424898;28;20033;-48
2021/03/31 06:29:09;;;;;;;11.63;4.75;;;7.60;99.90;;;;;;10427177;28;20152;-48
2021/03/31 06:34:33;;;;;;;21.00;5.32;;;7.70;99.90;;;;;;10421241;28;20041;-48
2021/03/31 06:39:54;;;;;;;11.63;4.55;;;7.80;99.90;;;;;;10427287;28;20039;-48
2021/03/31 06:45:18;;;;;;;14.52;6.53;;;8.10;99.90;;;;;;10425380;28;20079;-49
2021/03/31 06:50:39;;;;;;;14.48;5.38;;;8.30;99.90;;;;;;10412311;28;20045;-48
2021/03/31 06:56:03;;;;;;;15.02;5.38;;;8.70;99.90;;;;;;10424932;28;20033;-48
2021/03/31 07:01:32;;;;;;;16.02;5.72;;;9.10;99.90;;;;;;10416345;28;20306;-48
2021/03/31 07:07:10;;;;;;;16.17;6.88;;;9.60;99.90;;;;;;10419561;28;20037;-48
2021/03/31 07:12:46;;;;;;;16.70;6.30;;;10.10;99.90;;;;;;10410684;28;20457;-48
2021/03/31 07:18:08;;;;;;;13.32;6.20;;;10.70;99.90;;;;;;10410757;28;20037;-48
2021/03/31 07:23:29;;;;;;;18.52;7.38;;;11.20;99.90;;;;;;10407148;28;20168;-48
2021/03/31 07:28:50;;;;;;;23.60;7.03;;;11.60;99.90;;;;;;10413055;28;20029;-48
2021/03/31 07:34:32;;;;;;;19.27;7.43;;;11.90;99.90;;;;;;10422661;28;20045;-48
2021/03/31 07:39:54;;;;;;;22.23;8.30;;;12.40;99.90;;;;;;10429262;28;20037;-48
2021/03/31 07:45:17;;;;;;;23.08;7.40;;;13.00;99.90;;;;;;10404724;28;20068;-48
2021/03/31 07:50:38;;;;;;;20.33;7.70;;;13.30;99.90;;;;;;10422512;28;20036;-48
2021/03/31 07:56:13;;;;;;;18.10;7.88;;;13.50;99.90;;;;;;10405666;28;20026;-48
2021/03/31 08:01:39;;;;;;;26.60;8.40;;;13.80;99.90;;;;;;10424197;28;20033;-48
2021/03/31 08:07:21;;;;;;;21.20;7.45;;;14.10;99.90;;;;;;10417053;28;20177;-49
2021/03/31 08:12:43;;;;;;;20.55;7.53;;;14.60;99.90;;;;;;10405308;28;20041;-49
2021/03/31 08:18:04;;;;;;;18.98;8.55;;;14.80;99.90;;;;;;10402114;28;20655;-49
2021/03/31 08:23:48;;;;;;;15.48;5.25;;;15.10;99.90;;;;;;10398604;28;20650;-49
2021/03/31 08:29:12;;;;;;;21.88;7.88;;;15.40;99.90;;;;;;10405283;28;20109;-49
2021/03/31 08:34:34;;;;;;;17.48;6.85;;;15.60;99.90;;;;;;10416954;28;20319;-49
2021/03/31 08:40:06;;;;;;;16.30;6.32;;;15.90;99.90;;;;;;10421686;28;20680;-49
2021/03/31 08:45:34;;;;;;;18.55;6.88;;;16.20;99.90;;;;;;10386394;28;20045;-49
2021/03/31 08:51:05;;;;;;;17.02;7.65;;;16.60;99.90;;;;;;10379480;28;20337;-49
2021/03/31 08:56:26;;;;;;;17.42;7.95;;;17.00;97.30;;;;;;10398068;28;20037;-49
2021/03/31 09:01:47;;;;;;;20.17;7.47;;;17.60;94.80;;;;;;10407930;28;20041;-49
2021/03/31 09:07:10;;;;;;;14.00;7.78;;;17.80;94.90;;;;;;10407152;28;20039;-49
2021/03/31 09:12:31;;;;;;;18.55;7.93;;;18.10;96.40;;;;;;10406034;28;20550;-49
2021/03/31 09:17:55;;;;;;;18.75;8.88;;;18.60;94.20;;;;;;10385679;28;20473;-49
2021/03/31 09:23:26;;;;;;;24.40;9.10;;;19.00;90.80;;;;;;10403338;28;20037;-49
2021/03/31 09:28:47;;;;;;;17.27;7.03;;;19.40;88.60;;;;;;10387026;28;20044;-49
2021/03/31 09:34:10;;;;;;;19.30;9.25;;;19.70;89.00;;;;;;10406878;28;20519;-49
2021/03/31 09:39:41;;;;;;;20.38;6.93;;;19.90;75.10;;;;;;10407817;28;20155;-49
2021/03/31 09:45:07;;;;;;;19.27;8.10;;;20.40;74.40;;;;;;10394208;28;20044;-49
2021/03/31 09:50:29;;;;;;;16.20;8.02;;;20.70;81.20;;;;;;10405883;28;20447;-49
2021/03/31 09:55:52;;;;;;;17.00;8.55;;;21.20;78.50;;;;;;10376849;28;20039;-49
2021/03/31 10:01:15;;;;;;;19.88;7.00;;;21.30;66.40;;;;;;10399298;28;20034;-49
2021/03/31 10:06:36;;;;;;;17.83;7.00;;;21.60;65.90;;;;;;10402349;28;20120;-49
2021/03/31 10:11:57;;;;;;;20.27;7.97;;;21.90;60.00;;;;;;10401723;28;20049;-49
2021/03/31 10:17:20;;;;;;;17.90;6.82;;;22.10;63.20;;;;;;10372155;28;20034;-49
2021/03/31 10:22:41;;;;;;;21.95;7.80;;;22.60;62.00;;;;;;10363011;28;20045;-49
2021/03/31 10:28:02;;;;;;;18.95;7.55;;;23.00;59.60;;;;;;10363347;28;20038;-49
2021/03/31 10:33:23;;;;;;;17.63;8.30;;;23.40;58.70;;;;;;10367898;28;20037;-50
2021/03/31 10:39:23;;;;;;;17.90;7.78;;;23.80;53.70;;;;;;10402063;28;20069;-50
2021/03/31 10:50:18;;;;;;;14.85;7.10;;;24.30;59.00;;;;;;10410288;28;20370;-50
2021/03/31 10:55:42;;;;;;;18.35;8.05;;;25.00;56.30;;;;;;10366366;28;20438;-50
2021/03/31 11:01:03;;;;;;;14.88;6.43;;;25.50;56.00;;;;;;10369997;28;20281;-50
2021/03/31 11:06:24;;;;;;;12.57;6.18;;;25.90;54.40;;;;;;10368897;28;20414;-50
2021/03/31 11:11:46;;;;;;;15.27;5.20;;;26.10;51.40;;;;;;10396413;28;20202;-50
2021/03/31 11:17:13;;;;;;;12.60;5.57;;;26.20;53.80;;;;;;10400118;28;20941;-48
2021/03/31 11:28:14;;;;;;;15.18;6.20;;;27.50;51.90;;;;;;10372772;28;20442;-50
2021/03/31 11:33:36;;;;;;;15.45;6.30;;;27.60;53.20;;;;;;10370569;28;20042;-48
2021/03/31 11:38:57;;;;;;;17.65;7.35;;;27.70;53.90;;;;;;10381853;28;20030;-50
2021/03/31 11:44:18;;;;;;;12.73;6.63;;;28.10;49.40;;;;;;10364048;28;20041;-50
2021/03/31 11:49:39;;;;;;;14.02;6.50;;;28.50;50.60;;;;;;10365701;28;20037;-51
2021/03/31 11:55:00;;;;;;;17.27;5.80;;;28.70;49.20;;;;;;10369022;28;20073;-50
2021/03/31 12:00:21;;;;;;;13.82;5.82;;;28.50;47.30;;;;;;10371473;28;20048;-50
2021/03/31 12:05:42;;;;;;;18.67;6.10;;;28.70;46.00;;;;;;10367684;28;20163;-50
2021/03/31 12:11:03;;;;;;;17.48;6.10;;;29.00;44.50;;;;;;10365832;28;20514;-50
2021/03/31 12:16:24;;;;;;;15.35;5.60;;;29.70;43.90;;;;;;10361233;28;20581;-50
2021/03/31 12:21:45;;;;;;;13.45;6.70;;;29.50;44.60;;;;;;10402082;28;20442;-50
2021/03/31 12:27:08;;;;;;;18.17;6.32;;;29.90;43.20;;;;;;10391988;28;20407;-51
2021/03/31 12:32:29;;;;;;;14.77;6.18;;;30.90;43.20;;;;;;10386513;28;20056;-50
2021/03/31 12:37:50;;;;;;;13.30;5.90;;;31.00;42.40;;;;;;10404212;28;20040;-51
2021/03/31 12:43:12;;;;;;;15.02;5.60;;;31.40;39.90;;;;;;10361833;28;20090;-51
2021/03/31 12:48:32;;;;;;;18.77;7.07;;;31.10;42.40;;;;;;10390602;28;20044;-51
2021/03/31 12:54:02;;;;;;;17.52;6.22;;;31.40;38.60;;;;;;10407189;28;20045;-51
2021/03/31 12:59:23;;;;;;;12.73;5.63;;;30.20;41.20;;;;;;10395667;28;20132;-51
2021/03/31 13:04:43;;;;;;;13.18;5.20;;;31.00;41.80;;;;;;10403429;28;20060;-49
2021/03/31 13:10:07;;;;;;;11.68;4.60;;;32.00;40.40;;;;;;10403961;28;20060;-49
2021/03/31 13:15:42;;;;;;;11.63;5.40;;;32.30;39.80;;;;;;10423710;28;20584;-49
2021/03/31 13:32:24;;;;;;;15.00;6.07;;;32.50;40.80;;;;;;10420519;28;20469;-49
2021/03/31 13:38:01;;;;;;;11.90;5.55;;;33.10;39.90;;;;;;10403747;28;20120;-49
2021/03/31 13:43:24;;;;;;;14.88;6.55;;;32.80;39.40;;;;;;10403744;28;20045;-49
2021/03/31 13:54:24;;;;;;;14.15;5.38;;;32.00;39.10;;;;;;10402292;28;20046;-49
2021/03/31 13:59:45;;;;;;;19.90;7.13;;;32.00;36.60;;;;;;10384117;28;20133;-49
2021/03/31 14:05:08;;;;;;;17.55;7.30;;;31.80;38.20;;;;;;10389683;28;20047;-49
2021/03/31 14:10:29;;;;;;;18.92;7.28;;;32.00;37.20;;;;;;10417412;28;20551;-49
2021/03/31 14:15:49;;;;;;;19.25;8.32;;;31.50;37.70;;;;;;10419803;28;20049;-49
2021/03/31 14:21:11;;;;;;;17.77;8.23;;;31.10;38.10;;;;;;10405559;28;20037;-48
2021/03/31 14:26:32;;;;;;;17.83;8.05;;;30.20;38.60;;;;;;10404293;28;20038;-48
2021/03/31 14:31:53;;;;;;;16.02;6.68;;;29.30;40.00;;;;;;10406694;28;20040;-48
2021/03/31 14:37:17;;;;;;;18.83;8.40;;;28.70;41.90;;;;;;10404341;28;20131;-48
2021/03/31 14:42:38;;;;;;;17.50;7.18;;;28.00;42.30;;;;;;10386037;28;20420;-48
2021/03/31 14:48:00;;;;;;;25.15;8.82;;;27.30;42.10;;;;;;10399018;28;21053;-50
2021/03/31 15:04:44;;;;;;;21.73;8.27;;;25.80;46.60;;;;;;10390467;28;20077;-49
2021/03/31 15:10:06;;;;;;;20.80;8.38;;;25.30;46.80;;;;;;10404397;28;20451;-48
2021/03/31 15:15:27;;;;;;;23.38;8.65;;;25.00;47.10;;;;;;10393317;28;20077;-50
2021/03/31 15:20:52;;;;;;;21.90;8.48;;;24.90;46.80;;;;;;10381652;28;20532;-50
2021/03/31 15:26:13;;;;;;;14.90;6.53;;;24.90;47.90;;;;;;10401312;28;20095;-50
2021/03/31 15:31:34;;;;;;;13.90;5.75;;;24.60;48.20;;;;;;10392080;28;20029;-49
2021/03/31 15:36:55;;;;;;;19.60;5.60;;;24.20;48.10;;;;;;10395381;28;20038;-50
2021/03/31 15:42:16;;;;;;;13.48;3.15;;;23.70;49.10;;;;;;10416559;28;20037;-50
2021/03/31 15:47:42;;;;;;;7.55;2.88;;;23.50;45.90;;;;;;10334453;28;20029;-50
2021/03/31 15:53:04;;;;;;;5.93;2.80;;;23.50;47.30;;;;;;10365583;28;20053;-50
2021/03/31 15:58:25;;;;;;;11.77;2.90;;;23.50;47.30;;;;;;10355422;28;20034;-49
2021/03/31 16:03:53;;;;;;;6.97;2.35;;;23.40;45.20;;;;;;10369342;28;20048;-50
2021/03/31 16:09:14;;;;;;;5.68;1.83;;;23.30;47.80;;;;;;10359999;28;20082;-50
2021/03/31 16:14:36;;;;;;;2.65;1.42;;;23.10;48.30;;;;;;10372799;28;20680;-50
2021/03/31 16:19:57;;;;;;;11.32;1.77;;;22.80;48.30;;;;;;10374096;28;20077;-49
2021/03/31 16:25:19;;;;;;;6.45;1.88;;;22.60;50.50;;;;;;10373814;28;20073;-49
2021/03/31 16:36:10;;;;;;;6.55;2.33;;;22.10;51.20;;;;;;10366890;28;20041;-50
2021/03/31 16:41:31;;;;;;;3.60;2.03;;;21.90;53.70;;;;;;10364843;28;20071;-50
2021/03/31 16:46:52;;;;;;;4.68;2.03;;;21.80;54.40;;;;;;10344651;28;20045;-49
2021/03/31 16:52:13;;;;;;;21.88;10.30;;;21.60;55.00;;;;;;10347050;28;20040;-49
2021/03/31 16:57:35;;;;;;;9.52;4.55;;;21.50;55.30;;;;;;10374448;28;20175;-49
2021/03/31 17:02:56;;;;;;;24.00;7.95;;;21.30;55.80;;;;;;10370493;28;20034;-49
2021/03/31 17:08:17;;;;;;;12.13;4.45;;;21.20;55.20;;;;;;10365730;28;20618;-49
2021/03/31 17:13:38;;;;;;;9.05;3.58;;;21.10;57.90;;;;;;10371525;28;20034;-49
2021/03/31 17:18:59;;;;;;;8.15;3.20;;;21.00;61.80;;;;;;10368895;28;20427;-49
2021/03/31 17:24:20;;;;;;;7.95;3.75;;;20.80;61.70;;;;;;10375158;28;20046;-48
2021/03/31 17:29:41;;;;;;;5.93;2.17;;;20.70;67.10;;;;;;10375228;28;20588;-48
2021/03/31 17:35:02;;;;;;;8.00;2.78;;;20.50;72.30;;;;;;10372417;28;20238;-48
2021/03/31 17:40:23;;;;;;;6.18;2.13;;;20.40;82.20;;;;;;10373141;28;20090;-48
2021/03/31 17:45:44;;;;;;;5.88;2.35;;;20.20;90.00;;;;;;10371959;28;20033;-48
2021/03/31 17:51:05;;;;;;;3.65;1.40;;;20.00;92.20;;;;;;10361020;28;20037;-48
2021/03/31 17:56:27;;;;;;;6.97;2.00;;;19.80;95.20;;;;;;10360724;28;20072;-48
2021/03/31 18:01:48;;;;;;;12.23;2.25;;;19.60;99.70;;;;;;10374743;28;20051;-48
2021/03/31 18:07:09;;;;;;;5.57;2.45;;;19.40;99.90;;;;;;10365659;28;20124;-48
2021/03/31 18:12:34;;;;;;;6.57;2.53;;;19.20;99.90;;;;;;10294701;28;20471;-48
2021/03/31 18:17:55;;;;;;;5.70;2.75;;;19.00;99.90;;;;;;10265164;28;21532;-47
2021/03/31 18:23:18;;;;;;;5.90;2.40;;;18.70;99.90;;;;;;10262822;28;20405;-48
2021/03/31 18:28:39;;;;;;;5.75;2.50;;;18.50;99.90;;;;;;10265545;28;20054;-48
2021/03/31 18:34:00;;;;;;;8.75;3.08;;;18.30;99.90;;;;;;10268743;28;20050;-48
2021/03/31 18:39:21;;;;;;;11.30;4.13;;;18.10;99.90;;;;;;10279985;28;20042;-48
2021/03/31 18:44:42;;;;;;;10.82;2.38;;;18.00;99.90;;;;;;10275364;28;20042;-48
2021/03/31 18:50:05;;;;;;;8.63;3.35;;;17.80;99.90;;;;;;10274522;28;20488;-48
2021/03/31 18:55:27;;;;;;;6.97;2.28;;;17.70;99.90;;;;;;10282854;28;20042;-48
2021/03/31 19:00:48;;;;;;;9.95;2.80;;;17.60;99.90;;;;;;10278337;28;20065;-48
2021/03/31 19:06:09;;;;;;;4.75;2.35;;;17.50;99.90;;;;;;10277281;28;20039;-48
2021/03/31 19:11:30;;;;;;;10.55;3.25;;;17.40;99.90;;;;;;10280454;28;20506;-48
2021/03/31 19:16:53;;;;;;;11.60;4.00;;;17.20;99.90;;;;;;10278931;28;20442;-48
2021/03/31 19:22:14;;;;;;;9.38;4.22;;;17.20;99.90;;;;;;10279482;28;20519;-50
2021/03/31 19:27:35;;;;;;;11.27;4.75;;;17.20;99.90;;;;;;10283460;28;20049;-48
2021/03/31 19:32:56;;;;;;;13.05;5.20;;;17.00;99.90;;;;;;10293654;28;20126;-48
2021/03/31 19:38:18;;;;;;;11.98;4.85;;;17.00;99.90;;;;;;10237949;28;20034;-50
2021/03/31 19:43:39;;;;;;;14.80;4.28;;;17.00;99.90;;;;;;10271472;28;20140;-48
2021/03/31 19:49:00;;;;;;;9.18;4.30;;;16.90;99.90;;;;;;10272001;28;20038;-48
2021/03/31 19:54:22;;;;;;;9.80;3.80;;;16.80;99.90;;;;;;10271011;28;20494;-47
2021/03/31 19:59:43;;;;;;;13.10;4.07;;;16.80;99.90;;;;;;10266822;28;20049;-48
2021/03/31 20:05:05;;;;;;;8.18;2.70;;;16.70;99.90;;;;;;10264768;28;20049;-48
2021/03/31 20:10:26;;;;;;;8.38;3.38;;;16.70;99.90;;;;;;10274006;28;20097;-48
2021/03/31 20:15:47;;;;;;;10.02;3.38;;;16.70;99.90;;;;;;10267901;28;20462;-48
2021/03/31 20:21:09;;;;;;;6.63;2.80;;;16.60;99.90;;;;;;10230505;28;20058;-48
2021/03/31 20:26:30;;;;;;;7.00;3.47;;;16.60;99.90;;;;;;10238914;28;21732;-48
2021/03/31 20:31:51;;;;;;;8.35;3.40;;;16.50;99.90;;;;;;10246108;28;20046;-48
2021/03/31 20:37:12;;;;;;;8.43;3.60;;;16.50;99.90;;;;;;10242897;28;20097;-50
2021/03/31 20:42:33;;;;;;;11.82;3.53;;;16.50;99.90;;;;;;10259839;28;20049;-50
2021/03/31 20:47:54;;;;;;;7.20;3.17;;;16.40;99.90;;;;;;10248488;28;20122;-48
2021/03/31 20:53:15;;;;;;;9.73;3.33;;;16.40;99.90;;;;;;10246644;28;20570;-47
2021/03/31 20:58:36;;;;;;;7.68;3.15;;;16.30;99.90;;;;;;10253464;28;20508;-50
2021/03/31 21:03:57;;;;;;;8.88;3.03;;;16.30;99.90;;;;;;10257515;28;20142;-48
2021/03/31 21:09:19;;;;;;;8.02;3.30;;;16.30;99.90;;;;;;10242425;28;20122;-48
2021/03/31 21:14:40;;;;;;;9.30;3.38;;;16.30;99.90;;;;;;10249282;28;20498;-48
2021/03/31 21:20:02;;;;;;;5.95;3.05;;;16.20;99.90;;;;;;10248834;28;20043;-48
2021/03/31 21:25:23;;;;;;;10.90;3.40;;;16.20;99.90;;;;;;10248420;28;20042;-48
2021/03/31 21:30:44;;;;;;;8.70;3.53;;;16.10;99.90;;;;;;10242511;28;20045;-48
2021/03/31 21:36:06;;;;;;;9.07;3.05;;;16.10;99.90;;;;;;10241916;28;20051;-48
2021/03/31 21:41:27;;;;;;;11.07;3.58;;;16.00;99.90;;;;;;10243070;28;20043;-48
2021/03/31 21:46:48;;;;;;;11.55;4.03;;;15.90;99.90;;;;;;10240577;28;20613;-48
2021/03/31 21:52:08;;;;;;;12.23;4.85;;;15.90;99.90;;;;;;10278504;28;20038;-48
2021/03/31 21:57:29;;;;;;;11.13;5.13;;;15.90;99.90;;;;;;10282990;28;20054;-48
2021/03/31 22:02:50;;;;;;;9.85;4.88;;;15.80;99.90;;;;;;10284309;28;20576;-48
2021/03/31 22:08:12;;;;;;;8.50;3.85;;;15.70;99.90;;;;;;10244588;28;20479;-48
2021/03/31 22:13:35;;;;;;;8.35;4.68;;;15.50;99.90;;;;;;10243349;28;20126;-48
2021/03/31 22:18:56;;;;;;;8.00;3.38;;;15.50;99.90;;;;;;10241057;28;20058;-48
2021/03/31 22:24:17;;;;;;;9.48;3.38;;;15.40;99.90;;;;;;10247859;28;20047;-48
2021/03/31 22:29:38;;;;;;;11.52;4.57;;;15.30;99.90;;;;;;10240644;28;20043;-48
2021/03/31 22:35:01;;;;;;;10.13;3.40;;;15.20;99.90;;;;;;10253362;28;20057;-48
2021/03/31 22:40:28;;;;;;;15.45;4.28;;;15.20;99.90;;;;;;10244672;28;20047;-48
2021/03/31 22:45:49;;;;;;;7.90;3.65;;;15.00;99.90;;;;;;10248709;28;20395;-48
2021/03/31 22:51:12;;;;;;;9.40;3.65;;;14.90;99.90;;;;;;10251563;28;20407;-48
2021/03/31 22:56:33;;;;;;;10.20;3.97;;;14.90;99.90;;;;;;10282330;28;20074;-48
2021/03/31 23:01:55;;;;;;;10.27;3.45;;;14.90;99.90;;;;;;10285288;28;20030;-48
2021/03/31 23:07:16;;;;;;;9.82;3.75;;;14.80;99.90;;;;;;10279670;28;20044;-48
2021/03/31 23:12:37;;;;;;;7.20;2.83;;;14.80;99.90;;;;;;10277865;28;20126;-48
2021/03/31 23:17:58;;;;;;;8.00;2.95;;;14.80;99.90;;;;;;10282665;28;20423;-48
2021/03/31 23:23:20;;;;;;;10.05;3.40;;;14.70;99.90;;;;;;10288937;28;20046;-48
2021/03/31 23:28:41;;;;;;;10.55;3.45;;;14.60;99.90;;;;;;10267109;28;21332;-48
2021/03/31 23:34:03;;;;;;;10.80;3.95;;;14.60;99.90;;;;;;10244838;28;20074;-48
2021/03/31 23:39:24;;;;;;;9.85;3.60;;;14.70;99.90;;;;;;10244145;28;20063;-48
2021/03/31 23:44:44;;;;;;;11.65;4.40;;;14.60;99.90;;;;;;10244483;28;20053;-48
2021/03/31 23:50:06;;;;;;;10.95;5.07;;;14.60;99.90;;;;;;10238817;28;20035;-48
2021/03/31 23:55:27;;;;;;;10.15;3.72;;;14.60;99.90;;;;;;10243852;28;20050;-48
